Time;durP1;ratioP1;P1;durP2;ratioP2;P2;SDS_P1;SDS_P2;PMS_P1;PMS_P2;Temp;Humidity;BMP_temperature;BMP_pressure;BME280_temperature;BME280_humidity;BME280_pressure;Samples;Min_cycle;Max_cycle;Signal;HPM_P1;HPM_P2
2023/10/07 00:00:26;;;;;;;10.87;4.20;;;15.00;99.90;;;;;;5038531;28;20452;-78
2023/10/07 00:02:53;;;;;;;8.80;3.30;;;15.00;99.90;;;;;;5037965;28;20459;-78
2023/10/07 00:05:26;;;;;;;10.07;3.50;;;15.00;99.90;;;;;;5038554;28;20475;-78
2023/10/07 00:07:55;;;;;;;6.30;3.93;;;15.00;99.90;;;;;;5037846;28;20421;-78
2023/10/07 00:10:25;;;;;;;5.30;3.10;;;15.00;99.90;;;;;;5038439;28;20421;-78
2023/10/07 00:12:52;;;;;;;9.60;3.57;;;14.90;99.90;;;;;;5037207;28;20779;-78
2023/10/07 00:15:21;;;;;;;9.33;3.93;;;14.90;99.90;;;;;;5037180;28;20425;-78
2023/10/07 00:17:47;;;;;;;6.33;3.80;;;14.90;99.90;;;;;;5021032;28;20429;-79
2023/10/07 00:20:17;;;;;;;10.47;3.33;;;14.80;99.90;;;;;;5037925;28;20460;-78
2023/10/07 00:22:48;;;;;;;10.57;3.73;;;14.80;99.90;;;;;;5021374;28;20429;-78
2023/10/07 00:25:19;;;;;;;6.37;3.40;;;14.70;99.90;;;;;;5037937;28;20439;-79
2023/10/07 00:27:45;;;;;;;12.53;4.43;;;14.80;99.90;;;;;;5021005;28;20417;-78
2023/10/07 00:30:22;;;;;;;12.10;4.00;;;14.70;99.90;;;;;;5038061;28;20423;-78
2023/10/07 00:32:50;;;;;;;8.50;3.83;;;14.70;99.90;;;;;;5037124;28;20428;-79
2023/10/07 00:35:19;;;;;;;7.93;3.23;;;14.70;99.90;;;;;;5036404;28;20413;-78
2023/10/07 00:37:45;;;;;;;6.17;3.50;;;14.60;99.90;;;;;;5038538;28;20413;-79
2023/10/07 00:42:44;;;;;;;7.63;4.80;;;14.60;99.90;;;;;;5038098;28;20193;-79
2023/10/07 00:45:15;;;;;;;6.60;3.77;;;14.50;99.90;;;;;;5036394;28;20435;-78
2023/10/07 00:47:46;;;;;;;8.00;4.13;;;14.50;99.90;;;;;;5020524;28;20920;-78
2023/10/07 00:50:12;;;;;;;7.03;3.60;;;14.50;99.90;;;;;;5020600;28;20421;-78
2023/10/07 00:52:55;;;;;;;7.73;4.13;;;14.50;99.90;;;;;;5036770;28;20435;-78
2023/10/07 00:55:29;;;;;;;9.13;3.57;;;14.50;99.90;;;;;;5022084;28;20964;-78
2023/10/07 00:58:20;;;;;;;6.47;3.50;;;14.50;99.90;;;;;;5019534;28;20905;-79
2023/10/07 01:00:47;;;;;;;7.97;3.20;;;14.50;99.90;;;;;;5017641;28;20473;-79
2023/10/07 01:03:18;;;;;;;5.57;3.37;;;14.40;99.90;;;;;;5018920;28;20437;-79
2023/10/07 01:08:34;;;;;;;6.60;3.90;;;14.40;99.90;;;;;;5037943;28;20397;-79
2023/10/07 01:13:48;;;;;;;8.97;4.00;;;14.40;99.90;;;;;;5036346;28;20413;-80
2023/10/07 01:16:24;;;;;;;11.47;3.60;;;14.40;99.90;;;;;;5037190;28;20432;-79
2023/10/07 01:18:50;;;;;;;13.00;3.63;;;14.30;99.90;;;;;;5038124;28;20464;-79
2023/10/07 01:21:31;;;;;;;10.30;3.90;;;14.40;99.90;;;;;;5035866;28;20515;-78
2023/10/07 01:23:56;;;;;;;6.27;3.37;;;14.40;99.90;;;;;;5036362;28;20413;-78
2023/10/07 01:26:23;;;;;;;6.90;3.70;;;14.40;99.90;;;;;;5036747;28;20419;-78
2023/10/07 01:28:56;;;;;;;6.70;4.07;;;14.40;99.90;;;;;;5019927;28;20201;-79
2023/10/07 01:31:23;;;;;;;10.40;4.00;;;14.40;99.90;;;;;;5035774;28;20765;-79
2023/10/07 01:33:48;;;;;;;10.73;4.53;;;14.40;99.90;;;;;;5036046;28;20442;-79
2023/10/07 01:36:24;;;;;;;11.80;4.10;;;14.30;99.90;;;;;;5035625;28;20417;-79
2023/10/07 01:38:51;;;;;;;7.50;3.90;;;14.40;99.90;;;;;;5020791;28;20209;-76
2023/10/07 01:41:19;;;;;;;13.87;4.30;;;14.40;99.90;;;;;;5034969;28;20436;-79
2023/10/07 01:43:56;;;;;;;11.13;4.40;;;14.40;99.90;;;;;;5035341;28;20436;-79
2023/10/07 01:46:27;;;;;;;5.40;3.77;;;14.30;99.90;;;;;;5036144;28;20476;-79
2023/10/07 01:48:57;;;;;;;8.67;3.93;;;14.40;99.90;;;;;;5035724;28;20406;-79
2023/10/07 01:51:26;;;;;;;13.00;4.00;;;14.30;99.90;;;;;;5019500;28;20457;-78
2023/10/07 01:53:56;;;;;;;11.13;4.03;;;14.30;99.90;;;;;;5037152;28;20507;-79
2023/10/07 01:56:26;;;;;;;8.07;4.03;;;14.30;99.90;;;;;;5035142;28;20510;-79
2023/10/07 01:58:54;;;;;;;6.40;3.47;;;14.30;99.90;;;;;;5035539;28;20460;-79
2023/10/07 02:01:21;;;;;;;8.17;4.20;;;14.20;99.90;;;;;;5035055;28;20413;-79
2023/10/07 02:03:48;;;;;;;7.93;4.50;;;14.20;99.90;;;;;;5035022;28;20922;-79
2023/10/07 02:06:18;;;;;;;7.40;4.20;;;14.20;99.90;;;;;;5018474;28;20421;-79
2023/10/07 02:08:46;;;;;;;11.50;4.77;;;14.20;99.90;;;;;;5035776;28;20787;-79
2023/10/07 02:11:17;;;;;;;8.80;3.90;;;14.20;99.90;;;;;;5036062;28;20417;-79
2023/10/07 02:13:45;;;;;;;7.77;3.57;;;14.10;99.90;;;;;;5035813;28;20913;-79
2023/10/07 02:16:11;;;;;;;6.77;4.47;;;14.10;99.90;;;;;;5034636;28;20421;-79
2023/10/07 02:18:37;;;;;;;11.30;3.90;;;14.00;99.90;;;;;;5035902;28;20465;-78
2023/10/07 02:21:10;;;;;;;11.83;4.10;;;13.90;99.90;;;;;;5034221;28;20444;-78
2023/10/07 02:23:37;;;;;;;7.63;4.33;;;14.00;99.90;;;;;;5035389;28;20217;-78
2023/10/07 02:26:07;;;;;;;16.20;4.70;;;14.00;99.90;;;;;;5035155;28;20413;-78
2023/10/07 02:28:36;;;;;;;15.13;4.87;;;14.00;99.90;;;;;;5034618;28;20417;-78
2023/10/07 02:31:08;;;;;;;23.07;5.03;;;14.00;99.90;;;;;;5018261;28;20449;-78
2023/10/07 02:33:41;;;;;;;10.03;4.60;;;13.90;99.90;;;;;;5034549;28;20913;-78
2023/10/07 02:36:12;;;;;;;14.40;5.07;;;13.90;99.90;;;;;;5019119;28;20500;-79
2023/10/07 02:38:41;;;;;;;17.03;5.90;;;13.90;99.90;;;;;;5036144;28;20464;-78
2023/10/07 02:41:25;;;;;;;9.40;4.97;;;13.80;99.90;;;;;;5034432;28;20436;-78
2023/10/07 02:43:50;;;;;;;7.00;4.63;;;13.80;99.90;;;;;;5019749;28;20448;-78
2023/10/07 02:46:32;;;;;;;10.07;5.30;;;13.80;99.90;;;;;;5035351;28;20479;-78
2023/10/07 02:49:05;;;;;;;10.63;4.73;;;13.90;99.90;;;;;;5020489;28;20170;-78
2023/10/07 02:51:39;;;;;;;13.27;5.13;;;13.80;99.90;;;;;;5034749;28;20417;-78
2023/10/07 02:54:07;;;;;;;9.43;4.80;;;13.90;99.90;;;;;;5018963;28;20507;-78
2023/10/07 02:56:44;;;;;;;9.93;5.13;;;13.90;99.90;;;;;;5034695;28;20416;-78
2023/10/07 02:59:28;;;;;;;14.77;6.40;;;13.90;99.90;;;;;;5035988;28;20472;-78
2023/10/07 03:02:12;;;;;;;9.37;5.23;;;13.90;99.90;;;;;;5034720;28;20401;-78
2023/10/07 03:04:42;;;;;;;13.90;6.30;;;13.90;99.90;;;;;;5034500;28;20393;-79
2023/10/07 03:07:14;;;;;;;8.67;5.67;;;13.90;99.90;;;;;;5034230;28;20521;-79
2023/10/07 03:12:29;;;;;;;8.03;6.10;;;14.00;99.90;;;;;;5039002;28;20401;-79
2023/10/07 03:15:01;;;;;;;12.57;6.37;;;14.10;99.90;;;;;;5040411;28;20416;-79
2023/10/07 03:17:39;;;;;;;17.07;6.00;;;14.10;99.90;;;;;;5039560;28;20167;-79
2023/10/07 03:28:19;;;;;;;9.13;6.67;;;14.20;99.90;;;;;;5039481;28;20465;-79
2023/10/07 03:30:52;;;;;;;11.73;5.93;;;14.20;99.90;;;;;;5038227;28;20937;-79
2023/10/07 03:33:23;;;;;;;9.50;6.90;;;14.30;99.90;;;;;;5022179;28;20503;-79
2023/10/07 03:38:25;;;;;;;11.90;6.30;;;14.30;99.90;;;;;;5022476;28;20405;-79
2023/10/07 03:40:55;;;;;;;10.00;5.23;;;14.30;99.90;;;;;;5028743;28;20444;-79
2023/10/07 03:43:27;;;;;;;10.77;6.07;;;14.30;99.90;;;;;;5019832;28;20430;-79
2023/10/07 03:45:54;;;;;;;13.00;7.13;;;14.40;99.90;;;;;;5017617;28;20482;-79
2023/10/07 03:48:31;;;;;;;12.60;6.30;;;14.40;99.90;;;;;;5023502;28;20425;-79
2023/10/07 03:51:08;;;;;;;11.70;5.63;;;14.40;99.90;;;;;;5039000;28;20775;-79
2023/10/07 03:53:44;;;;;;;12.17;6.10;;;14.40;99.90;;;;;;5037832;28;20799;-79
2023/10/07 03:56:10;;;;;;;8.73;6.70;;;14.30;99.90;;;;;;5038664;28;20443;-81
2023/10/07 03:58:36;;;;;;;8.97;6.37;;;14.40;99.90;;;;;;5037198;28;20523;-78
2023/10/07 04:01:11;;;;;;;11.27;5.90;;;14.50;99.90;;;;;;5038929;28;20491;-79
2023/10/07 04:03:38;;;;;;;11.00;5.87;;;14.50;99.90;;;;;;5038282;28;20424;-79
2023/10/07 04:06:04;;;;;;;13.23;6.53;;;14.50;99.90;;;;;;5038758;28;20467;-79
2023/10/07 04:08:32;;;;;;;14.33;6.73;;;14.60;99.90;;;;;;5020715;28;20487;-78
2023/10/07 04:10:58;;;;;;;12.00;5.50;;;14.50;99.90;;;;;;5036984;28;20421;-78
2023/10/07 04:13:24;;;;;;;14.93;6.20;;;14.50;99.90;;;;;;5020392;28;20508;-79
2023/10/07 04:15:53;;;;;;;9.87;6.43;;;14.50;99.90;;;;;;5037160;28;20886;-79
2023/10/07 04:18:34;;;;;;;12.60;6.23;;;14.60;99.90;;;;;;5037177;28;20925;-78
2023/10/07 04:21:01;;;;;;;11.90;7.47;;;14.60;99.90;;;;;;5007690;28;20528;-79
2023/10/07 04:23:27;;;;;;;12.13;6.10;;;14.70;99.90;;;;;;5037487;28;20413;-78
2023/10/07 04:25:56;;;;;;;11.07;5.23;;;14.60;99.90;;;;;;5020725;28;20551;-79
2023/10/07 04:28:28;;;;;;;9.53;5.40;;;14.70;99.90;;;;;;5026027;28;20309;-79
2023/10/07 04:30:53;;;;;;;9.53;5.00;;;14.70;99.90;;;;;;5001375;28;20422;-79
2023/10/07 04:33:32;;;;;;;12.60;5.63;;;14.70;99.90;;;;;;5016647;28;20425;-79
2023/10/07 04:36:03;;;;;;;9.63;6.50;;;14.70;99.90;;;;;;5017506;28;20186;-79
2023/10/07 04:43:50;;;;;;;9.47;5.57;;;14.70;99.90;;;;;;5018396;28;20406;-79
2023/10/07 04:46:23;;;;;;;11.50;5.60;;;14.80;99.90;;;;;;5016257;28;20470;-79
2023/10/07 04:48:59;;;;;;;9.87;5.67;;;14.80;99.90;;;;;;5017339;28;20409;-79
2023/10/07 04:53:59;;;;;;;9.70;6.07;;;14.80;99.90;;;;;;5018147;28;20398;-79
2023/10/07 04:56:26;;;;;;;8.97;6.10;;;14.90;99.90;;;;;;5017871;28;20921;-79
2023/10/07 04:58:55;;;;;;;12.00;5.33;;;14.80;99.90;;;;;;5016746;28;20502;-78
2023/10/07 05:01:36;;;;;;;14.30;5.63;;;14.90;99.90;;;;;;5032137;28;20413;-79
2023/10/07 05:04:05;;;;;;;9.10;6.13;;;14.90;99.90;;;;;;5037305;28;20405;-78
2023/10/07 05:06:34;;;;;;;8.90;5.50;;;15.00;99.90;;;;;;5036628;28;20490;-79
2023/10/07 05:09:09;;;;;;;12.07;5.80;;;14.90;99.90;;;;;;5037467;28;20415;-79
2023/10/07 05:11:40;;;;;;;7.50;5.00;;;15.00;99.90;;;;;;5035807;28;20424;-79
2023/10/07 05:14:22;;;;;;;7.63;4.80;;;14.90;99.90;;;;;;5036340;28;20881;-79
2023/10/07 05:16:47;;;;;;;7.93;5.07;;;14.90;99.90;;;;;;5036375;28;20397;-79
2023/10/07 05:19:22;;;;;;;10.00;5.13;;;14.90;99.90;;;;;;5036290;28;20807;-79
2023/10/07 05:24:33;;;;;;;10.30;5.67;;;14.90;99.90;;;;;;5037580;28;20467;-79
2023/10/07 05:26:59;;;;;;;14.37;5.40;;;14.80;99.90;;;;;;5038220;28;20417;-79
2023/10/07 05:29:26;;;;;;;10.70;5.13;;;14.80;99.90;;;;;;5020103;28;20194;-79
2023/10/07 05:31:51;;;;;;;13.00;6.10;;;14.80;99.90;;;;;;5016684;28;20422;-79
2023/10/07 05:34:18;;;;;;;11.17;6.07;;;14.80;99.90;;;;;;5034074;28;20789;-80
2023/10/07 05:36:44;;;;;;;8.73;5.43;;;14.90;99.90;;;;;;5002998;28;20208;-79
2023/10/07 05:39:13;;;;;;;8.50;5.50;;;15.00;99.90;;;;;;5035728;28;20461;-79
2023/10/07 05:41:41;;;;;;;8.50;5.60;;;14.90;99.90;;;;;;5018951;28;20478;-80
2023/10/07 05:44:09;;;;;;;9.60;5.90;;;14.90;99.90;;;;;;5035412;28;20822;-80
2023/10/07 05:46:36;;;;;;;6.83;4.60;;;15.00;99.90;;;;;;5035958;28;20456;-79
2023/10/07 05:49:02;;;;;;;12.13;5.77;;;15.00;99.90;;;;;;5035300;28;20420;-79
2023/10/07 05:51:27;;;;;;;18.83;6.83;;;15.00;99.90;;;;;;5019080;28;20425;-79
2023/10/07 05:53:53;;;;;;;6.80;4.27;;;14.90;99.90;;;;;;5036702;28;20420;-79
2023/10/07 05:56:18;;;;;;;12.53;5.80;;;14.90;99.90;;;;;;5034769;28;20292;-79
2023/10/07 05:58:45;;;;;;;13.80;4.83;;;14.90;99.90;;;;;;5002660;28;20218;-79
2023/10/07 06:01:18;;;;;;;8.20;4.70;;;14.90;99.90;;;;;;5003087;28;20653;-79
2023/10/07 06:03:44;;;;;;;11.00;5.20;;;14.80;99.90;;;;;;5036020;28;20870;-79
2023/10/07 06:06:10;;;;;;;7.80;5.23;;;14.90;99.90;;;;;;5036688;28;20421;-79
2023/10/07 06:08:36;;;;;;;9.77;4.97;;;14.90;99.90;;;;;;5018934;28;20443;-79
2023/10/07 06:11:02;;;;;;;10.53;5.67;;;14.80;99.90;;;;;;5001779;28;20425;-79
2023/10/07 06:13:28;;;;;;;7.90;4.53;;;14.80;99.90;;;;;;5018097;28;20193;-79
2023/10/07 06:15:55;;;;;;;6.53;3.83;;;14.90;99.90;;;;;;5036022;28;20420;-79
2023/10/07 06:18:22;;;;;;;10.70;4.83;;;14.80;99.90;;;;;;5034813;28;20504;-79
2023/10/07 06:20:53;;;;;;;7.50;4.20;;;14.90;99.90;;;;;;5018477;28;20487;-79
2023/10/07 06:23:24;;;;;;;9.87;4.70;;;14.90;99.90;;;;;;5018938;28;20424;-80
2023/10/07 06:25:51;;;;;;;14.63;4.70;;;15.00;99.90;;;;;;5035871;28;20471;-79
2023/10/07 06:31:10;;;;;;;13.07;3.77;;;15.20;99.90;;;;;;5035932;28;20424;-79
2023/10/07 06:34:03;;;;;;;10.10;4.33;;;15.20;99.90;;;;;;5034728;28;20520;-79
2023/10/07 06:36:30;;;;;;;8.87;3.90;;;15.20;99.90;;;;;;5034053;28;20420;-79
2023/10/07 06:38:58;;;;;;;8.83;4.63;;;15.40;99.90;;;;;;5033809;28;20471;-79
2023/10/07 06:41:28;;;;;;;7.23;3.70;;;15.40;99.90;;;;;;5035490;28;20408;-79
2023/10/07 06:43:59;;;;;;;11.90;4.63;;;15.40;99.90;;;;;;5035166;28;20404;-81
2023/10/07 06:46:29;;;;;;;7.77;4.50;;;15.50;99.90;;;;;;5017296;28;20476;-80
2023/10/07 06:48:55;;;;;;;6.60;3.20;;;15.60;99.90;;;;;;5035308;28;20828;-82
2023/10/07 06:51:20;;;;;;;17.73;5.13;;;15.60;99.90;;;;;;5034638;28;20437;-82
2023/10/07 06:53:46;;;;;;;9.03;3.73;;;15.60;99.90;;;;;;5034199;28;20194;-82
2023/10/07 06:56:21;;;;;;;7.70;3.43;;;15.60;99.90;;;;;;5017941;28;20178;-82
2023/10/07 06:58:53;;;;;;;8.70;4.13;;;15.60;99.90;;;;;;5027140;28;20230;-82
2023/10/07 07:04:11;;;;;;;6.37;3.77;;;15.70;99.90;;;;;;5014662;28;20377;-80
2023/10/07 07:06:43;;;;;;;11.70;5.30;;;15.70;99.90;;;;;;5032321;28;20416;-81
2023/10/07 07:12:04;;;;;;;7.03;3.33;;;15.70;99.90;;;;;;5035361;28;20392;-80
2023/10/07 07:14:30;;;;;;;7.30;3.33;;;15.70;99.90;;;;;;5034949;28;20831;-80
2023/10/07 07:22:38;;;;;;;10.37;4.00;;;15.90;99.90;;;;;;5034844;28;20405;-80
2023/10/07 07:25:10;;;;;;;3.40;2.83;;;16.00;99.90;;;;;;5035041;28;20424;-80
2023/10/07 07:27:36;;;;;;;5.33;3.43;;;16.00;99.90;;;;;;5018245;28;20925;-80
2023/10/07 07:30:03;;;;;;;6.87;4.27;;;16.10;99.90;;;;;;5035163;28;20416;-80
2023/10/07 07:32:32;;;;;;;7.40;4.23;;;16.20;99.90;;;;;;5034736;28;20413;-79
2023/10/07 07:35:07;;;;;;;6.87;3.67;;;16.30;99.90;;;;;;5034164;28;20413;-80
2023/10/07 07:37:32;;;;;;;10.63;4.00;;;16.40;99.90;;;;;;5018724;28;20427;-80
2023/10/07 07:40:28;;;;;;;9.43;4.17;;;16.40;99.90;;;;;;5034434;28;20480;-80
2023/10/07 07:42:56;;;;;;;8.93;3.63;;;16.40;99.90;;;;;;5036016;28;20638;-80
2023/10/07 07:45:27;;;;;;;8.60;3.13;;;16.40;99.90;;;;;;5034386;28;20468;-80
2023/10/07 07:47:54;;;;;;;4.37;3.10;;;16.40;99.90;;;;;;5034659;28;20828;-80
2023/10/07 07:50:20;;;;;;;6.10;3.50;;;16.40;99.90;;;;;;5035265;28;20499;-80
2023/10/07 07:52:49;;;;;;;8.33;3.87;;;16.40;99.90;;;;;;5033489;28;20913;-80
2023/10/07 07:55:18;;;;;;;9.50;3.57;;;16.40;99.90;;;;;;5035354;28;20467;-81
2023/10/07 07:57:44;;;;;;;7.73;3.97;;;16.40;99.90;;;;;;5034071;28;20428;-81
2023/10/07 08:00:20;;;;;;;6.07;2.90;;;16.40;99.90;;;;;;5037145;28;20468;-80
2023/10/07 08:02:48;;;;;;;6.10;3.27;;;16.40;99.90;;;;;;5036429;28;20424;-81
2023/10/07 08:05:18;;;;;;;7.33;3.60;;;16.50;99.90;;;;;;5036215;28;20470;-80
2023/10/07 08:07:45;;;;;;;9.13;3.70;;;16.50;99.90;;;;;;5035790;28;20504;-83
2023/10/07 08:10:11;;;;;;;6.00;3.57;;;16.50;99.90;;;;;;5036294;28;20420;-80
2023/10/07 08:12:37;;;;;;;8.53;3.67;;;16.60;99.90;;;;;;5036592;28;20428;-80
2023/10/07 08:17:40;;;;;;;7.00;3.37;;;16.60;99.90;;;;;;5038044;28;20393;-80
2023/10/07 08:20:10;;;;;;;8.40;3.33;;;16.60;99.90;;;;;;5037302;28;20473;-80
2023/10/07 08:22:44;;;;;;;5.80;3.87;;;16.50;99.90;;;;;;5035882;28;20420;-81
2023/10/07 08:25:15;;;;;;;5.83;3.83;;;16.50;99.90;;;;;;5036894;28;20412;-81
2023/10/07 08:27:44;;;;;;;6.37;3.70;;;16.50;99.90;;;;;;5035848;28;20428;-80
2023/10/07 08:30:14;;;;;;;6.13;4.00;;;16.50;99.90;;;;;;5036114;28;20392;-80
2023/10/07 08:32:41;;;;;;;9.90;3.47;;;16.40;99.90;;;;;;5031757;28;20444;-79
2023/10/07 08:35:18;;;;;;;8.00;3.77;;;16.50;99.90;;;;;;5008769;28;20442;-80
2023/10/07 08:37:47;;;;;;;5.20;3.10;;;16.60;99.90;;;;;;5032545;28;20459;-79
2023/10/07 08:40:29;;;;;;;6.00;3.97;;;16.60;99.90;;;;;;5037786;28;20496;-80
2023/10/07 08:42:59;;;;;;;11.23;3.90;;;16.70;99.90;;;;;;5021809;28;20432;-81
2023/10/07 08:45:28;;;;;;;7.13;3.60;;;16.80;99.90;;;;;;5036126;28;20485;-80
2023/10/07 08:48:08;;;;;;;6.97;3.40;;;16.90;99.90;;;;;;5037713;28;20380;-80
2023/10/07 08:50:58;;;;;;;8.80;3.17;;;17.00;99.90;;;;;;5030175;28;20432;-81
2023/10/07 08:53:23;;;;;;;8.90;3.90;;;17.10;99.90;;;;;;5018662;28;21064;-80
2023/10/07 08:56:00;;;;;;;8.10;3.20;;;17.30;99.90;;;;;;5016211;28;20426;-80
2023/10/07 08:58:29;;;;;;;9.40;3.70;;;17.50;99.90;;;;;;5017739;28;20425;-81
2023/10/07 09:00:58;;;;;;;7.80;3.30;;;17.60;99.90;;;;;;5018002;28;20878;-81
2023/10/07 09:03:29;;;;;;;6.83;3.90;;;17.60;99.90;;;;;;5034340;28;20495;-81
2023/10/07 09:05:59;;;;;;;7.90;3.40;;;17.60;99.90;;;;;;5033462;28;20424;-81
2023/10/07 09:08:25;;;;;;;5.80;3.77;;;17.70;99.90;;;;;;5036054;28;20393;-80
2023/10/07 09:10:55;;;;;;;8.13;3.30;;;17.80;99.90;;;;;;5035216;28;20765;-80
2023/10/07 09:13:27;;;;;;;10.33;3.40;;;18.20;99.90;;;;;;5036705;28;20413;-80
2023/10/07 09:15:54;;;;;;;7.40;3.60;;;18.20;99.90;;;;;;5035100;28;20440;-80
2023/10/07 09:18:28;;;;;;;6.97;2.90;;;18.40;99.90;;;;;;5035784;28;20388;-80
2023/10/07 09:20:56;;;;;;;8.60;3.57;;;18.70;99.90;;;;;;5035013;28;20479;-80
2023/10/07 09:23:35;;;;;;;8.17;3.67;;;18.80;99.90;;;;;;5036477;28;20496;-80
2023/10/07 09:26:16;;;;;;;9.57;3.90;;;19.10;99.90;;;;;;5035880;28;20449;-80
2023/10/07 09:28:46;;;;;;;7.50;3.83;;;18.90;99.90;;;;;;5036073;28;20911;-80
2023/10/07 09:31:15;;;;;;;6.70;3.17;;;19.30;99.90;;;;;;5035288;28;20396;-80
2023/10/07 09:33:41;;;;;;;5.73;3.50;;;19.50;99.90;;;;;;5035087;28;20409;-80
2023/10/07 09:41:39;;;;;;;7.33;3.40;;;19.70;99.90;;;;;;5024255;28;20417;-80
2023/10/07 09:44:19;;;;;;;5.87;2.97;;;19.50;99.90;;;;;;5035856;28;20420;-80
2023/10/07 09:46:46;;;;;;;6.67;3.40;;;19.60;99.90;;;;;;5035393;28;20461;-81
2023/10/07 09:49:14;;;;;;;11.47;3.93;;;19.80;99.90;;;;;;5032311;28;20772;-80
2023/10/07 09:51:47;;;;;;;9.70;3.20;;;19.60;99.90;;;;;;5034962;28;20758;-80
2023/10/07 09:54:26;;;;;;;6.17;3.70;;;19.80;99.90;;;;;;5004207;28;20417;-81
2023/10/07 09:57:19;;;;;;;9.90;3.90;;;20.30;99.90;;;;;;5036037;28;20405;-80
2023/10/07 10:01:03;;;;;;;5.73;3.33;;;20.30;99.90;;;;;;5035157;28;20467;-81
2023/10/07 10:03:12;;;;;;;4.90;3.13;;;20.30;99.90;;;;;;5024555;28;20434;-81
2023/10/07 10:05:49;;;;;;;6.70;2.93;;;20.60;99.90;;;;;;5015721;28;20510;-81
2023/10/07 10:08:27;;;;;;;6.13;3.20;;;20.60;99.90;;;;;;5014930;28;20832;-80
2023/10/07 10:10:57;;;;;;;12.00;3.00;;;20.50;99.90;;;;;;5023373;28;20403;-80
2023/10/07 10:16:14;;;;;;;8.97;3.13;;;20.90;99.90;;;;;;5035278;28;20411;-81
2023/10/07 10:19:11;;;;;;;5.43;3.30;;;20.70;99.90;;;;;;5034273;28;20934;-81
2023/10/07 10:21:37;;;;;;;5.17;2.80;;;21.10;99.90;;;;;;5049884;28;20392;-81
2023/10/07 10:24:03;;;;;;;5.10;2.97;;;21.00;99.90;;;;;;5015949;28;20425;-80
2023/10/07 10:26:33;;;;;;;6.70;3.60;;;21.40;99.90;;;;;;5013969;28;20187;-81
2023/10/07 10:29:15;;;;;;;3.77;2.70;;;21.50;99.90;;;;;;5013935;28;20397;-80
2023/10/07 10:31:49;;;;;;;4.73;2.43;;;21.40;99.90;;;;;;5013524;28;20405;-81
2023/10/07 10:34:14;;;;;;;3.97;2.67;;;21.60;99.90;;;;;;5015032;28;20398;-81
2023/10/07 10:36:43;;;;;;;4.90;2.50;;;21.80;99.90;;;;;;5014788;28;20434;-81
2023/10/07 10:39:18;;;;;;;6.30;2.43;;;21.80;99.90;;;;;;5028803;28;20271;-81
2023/10/07 10:41:44;;;;;;;6.67;2.87;;;21.50;99.90;;;;;;5016918;28;20433;-78
2023/10/07 10:44:12;;;;;;;4.40;2.30;;;21.10;99.90;;;;;;5013930;28;20535;-81
2023/10/07 10:46:46;;;;;;;4.43;2.53;;;21.10;99.90;;;;;;5014905;28;20298;-80
2023/10/07 10:49:13;;;;;;;4.43;2.57;;;21.00;99.90;;;;;;5013743;28;20710;-81
2023/10/07 10:51:45;;;;;;;6.00;2.57;;;21.20;99.90;;;;;;5042048;28;20511;-80
2023/10/07 10:54:12;;;;;;;6.57;2.80;;;21.20;99.90;;;;;;5054806;28;20462;-80
2023/10/07 10:56:55;;;;;;;6.50;2.83;;;21.20;99.90;;;;;;5054226;28;20383;-81
2023/10/07 10:59:22;;;;;;;5.30;2.57;;;21.40;99.90;;;;;;5053381;28;20469;-80
2023/10/07 11:01:51;;;;;;;5.60;2.50;;;21.70;99.90;;;;;;5037666;28;20440;-81
2023/10/07 11:04:20;;;;;;;5.00;2.80;;;21.90;99.90;;;;;;5033035;28;20464;-81
2023/10/07 11:06:51;;;;;;;6.90;2.60;;;21.80;99.90;;;;;;5034070;28;20417;-81
2023/10/07 11:09:26;;;;;;;5.97;2.97;;;21.90;99.90;;;;;;5032564;28;20487;-81
2023/10/07 11:11:55;;;;;;;4.00;2.67;;;21.60;99.90;;;;;;5008069;28;20439;-81
2023/10/07 11:14:23;;;;;;;3.50;2.33;;;21.90;99.90;;;;;;5034471;28;20402;-80
2023/10/07 11:16:50;;;;;;;5.43;3.10;;;22.00;99.90;;;;;;5033701;28;20772;-81
2023/10/07 11:19:16;;;;;;;7.10;3.10;;;22.10;99.90;;;;;;5034238;28;20457;-81
2023/10/07 11:21:44;;;;;;;5.23;2.47;;;22.00;99.90;;;;;;5032727;28;20409;-81
2023/10/07 11:24:21;;;;;;;4.50;2.47;;;22.20;99.90;;;;;;5032897;28;20642;-80
2023/10/07 11:26:49;;;;;;;5.47;2.40;;;22.10;99.90;;;;;;5034031;28;20397;-81
2023/10/07 11:29:15;;;;;;;3.63;2.20;;;22.30;99.90;;;;;;5033735;28;20471;-81
2023/10/07 11:31:41;;;;;;;4.30;2.17;;;22.60;99.90;;;;;;5032412;28;20900;-81
2023/10/07 11:34:10;;;;;;;5.30;2.73;;;22.90;99.90;;;;;;5037742;28;20420;-81
2023/10/07 11:36:48;;;;;;;4.43;2.60;;;22.90;99.90;;;;;;5037924;28;20320;-81
2023/10/07 11:39:14;;;;;;;4.73;2.57;;;22.90;99.90;;;;;;5037560;28;20507;-80
2023/10/07 11:41:43;;;;;;;4.73;2.63;;;23.10;99.90;;;;;;5031146;28;20800;-81
2023/10/07 11:44:12;;;;;;;5.37;2.80;;;23.10;99.90;;;;;;5000632;28;20436;-81
2023/10/07 11:46:41;;;;;;;7.40;2.83;;;23.20;99.90;;;;;;5000120;28;20448;-81
2023/10/07 11:49:08;;;;;;;9.57;3.00;;;23.10;99.90;;;;;;5016488;28;20404;-81
2023/10/07 11:51:34;;;;;;;4.00;2.37;;;22.90;99.90;;;;;;5017302;28;20422;-81
2023/10/07 11:54:00;;;;;;;4.33;2.70;;;23.20;99.90;;;;;;5023771;28;20429;-81
2023/10/07 11:56:27;;;;;;;6.20;2.60;;;22.90;99.90;;;;;;5016418;28;20179;-82
2023/10/07 11:58:53;;;;;;;8.90;2.73;;;23.20;99.90;;;;;;5016957;28;20434;-81
2023/10/07 12:01:20;;;;;;;2.73;1.97;;;23.30;99.90;;;;;;5017125;28;20385;-82
2023/10/07 12:03:46;;;;;;;3.20;2.60;;;23.20;99.90;;;;;;5015813;28;20910;-81
2023/10/07 12:06:12;;;;;;;4.83;2.40;;;23.30;99.90;;;;;;5016207;28;20430;-81
2023/10/07 12:08:38;;;;;;;8.60;3.13;;;23.40;99.90;;;;;;5032753;28;20388;-81
2023/10/07 12:11:05;;;;;;;6.30;2.50;;;23.40;99.90;;;;;;5037179;28;20206;-81
2023/10/07 12:13:31;;;;;;;4.13;2.63;;;23.30;99.90;;;;;;5028469;28;20392;-81
2023/10/07 12:16:00;;;;;;;4.50;2.07;;;23.50;99.90;;;;;;5015690;28;20802;-81
2023/10/07 12:18:25;;;;;;;7.00;2.07;;;23.50;99.90;;;;;;5015704;28;20448;-82
2023/10/07 12:20:55;;;;;;;6.70;2.53;;;23.10;99.90;;;;;;5015486;28;20517;-82
2023/10/07 12:23:20;;;;;;;4.40;2.60;;;23.20;99.90;;;;;;5017133;28;20417;-81
2023/10/07 12:25:46;;;;;;;3.47;2.10;;;23.40;99.90;;;;;;5015653;28;20418;-81
2023/10/07 12:28:13;;;;;;;4.10;2.70;;;23.30;99.90;;;;;;4999355;28;20183;-81
2023/10/07 12:30:38;;;;;;;2.90;2.30;;;23.40;99.90;;;;;;5021484;28;20197;-82
2023/10/07 12:33:04;;;;;;;4.33;2.20;;;23.70;99.90;;;;;;5036146;28;20879;-81
2023/10/07 12:35:31;;;;;;;3.57;2.20;;;23.80;99.90;;;;;;5035005;28;20213;-81
2023/10/07 12:37:59;;;;;;;5.87;3.40;;;23.70;99.90;;;;;;5018776;28;20626;-82
2023/10/07 12:40:28;;;;;;;6.47;2.83;;;24.00;99.90;;;;;;5019413;28;20451;-82
2023/10/07 12:42:56;;;;;;;4.10;2.63;;;24.00;99.90;;;;;;5036040;28;20413;-81
2023/10/07 12:45:21;;;;;;;4.40;2.20;;;24.00;99.90;;;;;;5035809;28;21712;-82
2023/10/07 12:47:51;;;;;;;5.13;2.40;;;23.90;99.90;;;;;;5045488;28;20412;-81
2023/10/07 12:50:29;;;;;;;5.27;2.10;;;24.00;99.90;;;;;;5054897;28;20599;-81
2023/10/07 12:53:01;;;;;;;4.93;2.30;;;23.90;99.90;;;;;;5056156;28;20404;-82
2023/10/07 12:55:34;;;;;;;4.63;2.83;;;23.80;99.90;;;;;;5055887;28;20714;-81
2023/10/07 12:58:05;;;;;;;5.53;2.87;;;24.00;99.90;;;;;;5032389;28;20426;-82
2023/10/07 13:00:33;;;;;;;2.53;2.30;;;24.20;99.90;;;;;;5014974;28;20462;-82
2023/10/07 13:03:04;;;;;;;5.93;2.30;;;24.30;99.90;;;;;;5014595;28;20429;-83
2023/10/07 13:05:33;;;;;;;5.83;3.10;;;24.20;99.90;;;;;;5014784;28;20774;-83
2023/10/07 13:07:58;;;;;;;8.60;3.43;;;24.20;99.90;;;;;;4998530;28;20448;-82
2023/10/07 13:10:26;;;;;;;5.70;3.17;;;24.20;99.90;;;;;;5016164;28;20410;-82
2023/10/07 13:12:55;;;;;;;5.20;3.13;;;24.00;99.90;;;;;;5015725;28;20500;-82
2023/10/07 13:15:30;;;;;;;5.67;2.53;;;24.00;99.90;;;;;;5014609;28;20436;-82
2023/10/07 13:17:58;;;;;;;8.97;3.13;;;23.90;99.90;;;;;;5014950;28;20425;-81
2023/10/07 13:20:26;;;;;;;3.50;2.30;;;24.00;99.90;;;;;;5014691;28;20531;-81
2023/10/07 13:23:00;;;;;;;6.80;3.20;;;24.00;99.90;;;;;;5014646;28;20417;-81
2023/10/07 13:25:27;;;;;;;3.40;2.20;;;24.30;99.90;;;;;;5015724;28;20401;-81
2023/10/07 13:27:55;;;;;;;3.90;2.73;;;24.50;99.90;;;;;;5023599;28;20464;-82
2023/10/07 13:30:24;;;;;;;6.70;3.17;;;24.40;99.90;;;;;;5020202;28;20925;-82
2023/10/07 13:32:52;;;;;;;8.07;2.90;;;24.50;99.90;;;;;;5014832;28;20925;-82
2023/10/07 13:35:19;;;;;;;5.43;2.60;;;24.50;99.90;;;;;;5027013;28;20399;-82
2023/10/07 13:37:49;;;;;;;3.27;2.73;;;24.70;99.90;;;;;;5027328;28;20441;-82
2023/10/07 13:40:16;;;;;;;5.47;2.80;;;24.90;99.90;;;;;;5013551;28;20469;-82
2023/10/07 13:42:50;;;;;;;6.80;2.93;;;24.70;99.90;;;;;;5017625;28;20450;-82
2023/10/07 13:45:23;;;;;;;6.90;2.80;;;24.60;99.90;;;;;;5034795;28;20476;-82
2023/10/07 13:47:50;;;;;;;5.17;2.90;;;24.90;99.90;;;;;;5026623;28;20421;-81
2023/10/07 13:50:20;;;;;;;5.60;3.00;;;25.20;99.90;;;;;;5014943;28;20492;-82
2023/10/07 13:52:50;;;;;;;6.30;3.30;;;24.80;99.90;;;;;;5014656;28;20456;-83
2023/10/07 13:58:14;;;;;;;7.07;3.20;;;25.00;99.90;;;;;;5024789;28;20496;-82